createdAt,value
2022-12-11T00:01:19.969Z,99485.61
2022-12-11T00:03:48.309Z,99484.64
2022-12-11T00:06:18.197Z,99482.80
2022-12-11T00:08:45.464Z,99479.02
2022-12-11T00:11:16.612Z,99477.35
2022-12-11T00:13:44.298Z,99480.98
2022-12-11T00:16:12.098Z,99479.51
2022-12-11T00:18:39.238Z,99480.20
2022-12-11T00:21:08.974Z,99481.92
2022-12-11T00:23:36.414Z,99484.80
2022-12-11T00:26:13.853Z,99483.42
2022-12-11T00:28:41.996Z,99484.85
2022-12-11T00:31:13.013Z,99484.23
2022-12-11T00:33:42.955Z,99481.42
2022-12-11T00:36:19.500Z,99476.91
2022-12-11T00:38:47.009Z,99476.45
2022-12-11T00:41:14.113Z,99476.14
2022-12-11T00:43:41.422Z,99472.82
2022-12-11T00:46:08.605Z,99477.63
2022-12-11T00:48:36.098Z,99480.11
2022-12-11T00:51:03.402Z,99479.77
2022-12-11T00:53:31.093Z,99474.12
2022-12-11T00:55:58.165Z,99470.57
2022-12-11T00:58:25.288Z,99472.36
2022-12-11T01:00:52.700Z,99465.29
2022-12-11T01:03:19.846Z,99463.54
2022-12-11T01:05:56.010Z,99456.31
2022-12-11T01:08:23.154Z,99453.17
2022-12-11T01:10:51.254Z,99448.70
2022-12-11T01:13:18.357Z,99449.95
2022-12-11T01:15:46.068Z,99447.46
2022-12-11T01:18:15.705Z,99452.14
2022-12-11T01:20:43.374Z,99461.42
2022-12-11T01:23:13.302Z,99465.73
2022-12-11T01:25:41.532Z,99466.27
2022-12-11T01:28:09.013Z,99467.90
2022-12-11T01:30:37.082Z,99472.61
2022-12-11T01:33:04.288Z,99473.66
2022-12-11T01:35:31.337Z,99471.33
2022-12-11T01:37:59.417Z,99469.59
2022-12-11T01:40:26.687Z,99467.09
2022-12-11T01:42:53.760Z,99468.09
2022-12-11T01:45:27.163Z,99471.00
2022-12-11T01:47:59.917Z,99469.08
2022-12-11T01:50:28.219Z,99467.58
2022-12-11T01:52:55.394Z,99464.13
2022-12-11T01:55:22.544Z,99461.45
2022-12-11T01:57:52.817Z,99453.07
2022-12-11T02:00:20.994Z,99454.72
2022-12-11T02:02:48.151Z,99454.55
2022-12-11T02:05:15.368Z,99449.13
2022-12-11T02:07:48.072Z,99446.14
2022-12-11T02:10:15.589Z,99442.45
2022-12-11T02:12:53.407Z,99443.91
2022-12-11T02:15:47.929Z,99440.50
2022-12-11T02:18:34.845Z,99440.77
2022-12-11T02:21:24.597Z,99441.73
2022-12-11T02:24:25.566Z,99439.06
2022-12-11T02:27:21.805Z,99432.69
2022-12-11T02:30:10.099Z,99427.48
2022-12-11T02:32:40.369Z,99425.71
2022-12-11T02:35:13.522Z,99423.80
2022-12-11T02:37:44.731Z,99425.53
2022-12-11T02:40:14.624Z,99422.39
2022-12-11T02:42:44.207Z,99425.38
2022-12-11T02:45:12.939Z,99418.55
2022-12-11T02:47:42.232Z,99417.09
2022-12-11T02:50:13.951Z,99413.52
2022-12-11T02:52:42.924Z,99411.34
2022-12-11T02:55:13.161Z,99415.85
2022-12-11T02:57:48.101Z,99416.92
2022-12-11T03:00:16.816Z,99418.71
2022-12-11T03:02:44.461Z,99417.04
2022-12-11T03:05:13.427Z,99412.45
2022-12-11T03:07:42.826Z,99408.80
2022-12-11T03:10:14.762Z,99409.56
2022-12-11T03:12:48.111Z,99406.60
2022-12-11T03:15:22.013Z,99406.42
2022-12-11T03:17:49.111Z,99401.33
2022-12-11T03:20:43.705Z,99399.48
2022-12-11T03:23:16.872Z,99401.25
2022-12-11T03:25:52.317Z,99398.27
2022-12-11T03:28:50.111Z,99395.13
2022-12-11T03:31:26.279Z,99393.02
2022-12-11T03:33:56.478Z,99386.47
2022-12-11T03:36:31.973Z,99386.20
2022-12-11T03:39:03.289Z,99383.27
2022-12-11T03:41:32.924Z,99378.43
2022-12-11T03:44:00.533Z,99379.61
2022-12-11T03:46:34.146Z,99374.42
2022-12-11T03:49:05.792Z,99372.58
2022-12-11T03:51:35.538Z,99374.20
2022-12-11T03:54:03.550Z,99376.22
2022-12-11T03:56:34.515Z,99378.56
2022-12-11T03:59:01.646Z,99377.98
2022-12-11T04:01:28.814Z,99378.66
2022-12-11T04:03:56.008Z,99374.30
2022-12-11T04:06:23.192Z,99369.19
2022-12-11T04:08:50.268Z,99368.42
2022-12-11T04:11:35.591Z,99367.30
2022-12-11T04:14:27.550Z,99366.60
2022-12-11T04:16:55.357Z,99363.27
2022-12-11T04:19:41.769Z,99360.95
2022-12-11T04:22:32.962Z,99366.08
2022-12-11T04:25:01.175Z,99365.96
2022-12-11T04:27:47.003Z,99364.52
2022-12-11T04:30:17.321Z,99370.70
2022-12-11T04:32:44.727Z,99369.80
2022-12-11T04:35:12.577Z,99366.41
2022-12-11T04:37:40.054Z,99369.65
2022-12-11T04:40:10.428Z,99371.14
2022-12-11T04:42:37.682Z,99380.05
2022-12-11T04:45:06.040Z,99375.96
2022-12-11T04:47:33.061Z,99373.48
2022-12-11T04:50:00.210Z,99372.93
2022-12-11T04:52:27.336Z,99368.51
2022-12-11T04:54:54.406Z,99367.23
2022-12-11T04:57:21.764Z,99364.31
2022-12-11T04:59:49.125Z,99360.19
2022-12-11T05:02:17.215Z,99359.40
2022-12-11T05:04:44.470Z,99361.56
2022-12-11T05:07:11.620Z,99360.80
2022-12-11T05:09:38.659Z,99362.27
2022-12-11T05:12:05.848Z,99362.48
2022-12-11T05:14:33.558Z,99364.89
2022-12-11T05:17:00.709Z,99371.55
2022-12-11T05:19:28.064Z,99378.73
2022-12-11T05:21:55.086Z,99378.99
2022-12-11T05:24:22.186Z,99374.14
2022-12-11T05:26:49.259Z,99370.54
2022-12-11T05:29:16.358Z,99372.08
2022-12-11T05:31:43.907Z,99374.08
2022-12-11T05:34:11.047Z,99376.34
2022-12-11T05:36:38.091Z,99377.86
2022-12-11T05:39:05.370Z,99375.75
2022-12-11T05:41:34.007Z,99372.90
2022-12-11T05:44:01.523Z,99372.30
2022-12-11T05:46:30.680Z,99370.79
2022-12-11T05:49:00.615Z,99369.89
2022-12-11T05:51:28.982Z,99363.62
2022-12-11T05:53:57.392Z,99360.45
2022-12-11T05:56:27.480Z,99359.58
2022-12-11T05:58:55.683Z,99355.73
2022-12-11T06:01:26.185Z,99356.78
2022-12-11T06:03:54.775Z,99353.50
2022-12-11T06:06:22.339Z,99354.84
2022-12-11T06:08:54.115Z,99350.27
2022-12-11T06:11:24.173Z,99348.70
2022-12-11T06:13:52.686Z,99348.11
2022-12-11T06:16:20.670Z,99350.60
2022-12-11T06:18:48.168Z,99348.00
2022-12-11T06:21:16.932Z,99345.58
2022-12-11T06:23:46.127Z,99340.55
2022-12-11T06:26:14.381Z,99333.85
2022-12-11T06:28:41.659Z,99330.70
2022-12-11T06:31:08.986Z,99328.95
2022-12-11T06:33:36.447Z,99334.77
2022-12-11T06:36:05.595Z,99328.61
2022-12-11T06:38:33.158Z,99328.02
2022-12-11T06:41:02.638Z,99329.55
2022-12-11T06:43:29.761Z,99326.86
2022-12-11T06:46:02.112Z,99327.09
2022-12-11T06:48:31.111Z,99332.54
2022-12-11T06:50:58.150Z,99327.30
2022-12-11T06:53:25.198Z,99326.11
2022-12-11T06:55:52.292Z,99327.34
2022-12-11T06:58:20.394Z,99324.77
2022-12-11T07:00:47.572Z,99323.55
2022-12-11T07:03:14.825Z,99323.80
2022-12-11T07:05:41.923Z,99323.63
2022-12-11T07:08:09.051Z,99323.73
2022-12-11T07:10:36.175Z,99317.63
2022-12-11T07:13:03.324Z,99318.41
2022-12-11T07:15:30.397Z,99320.00
2022-12-11T07:17:57.446Z,99317.02
2022-12-11T07:20:24.579Z,99319.11
2022-12-11T07:22:51.671Z,99320.81
2022-12-11T07:25:18.692Z,99319.11
2022-12-11T07:27:45.821Z,99313.14
2022-12-11T07:30:13.454Z,99314.94
2022-12-11T07:32:40.580Z,99316.34
2022-12-11T07:35:08.435Z,99314.86
2022-12-11T07:37:35.622Z,99314.18
2022-12-11T07:40:02.647Z,99318.15
2022-12-11T07:42:29.642Z,99321.00
2022-12-11T07:44:56.742Z,99326.11
2022-12-11T08:11:26.980Z,99334.38
2022-12-11T08:13:54.354Z,99336.45
2022-12-11T08:16:22.354Z,99338.36
2022-12-11T08:18:50.421Z,99338.42
2022-12-11T08:21:23.256Z,99337.22
2022-12-11T08:23:52.171Z,99331.06
2022-12-11T08:26:22.496Z,99333.55
2022-12-11T08:28:49.546Z,99332.41
2022-12-11T08:31:17.919Z,99328.83
2022-12-11T08:33:46.293Z,99327.15
2022-12-11T08:36:16.273Z,99322.40
2022-12-11T08:38:43.497Z,99321.17
2022-12-11T08:41:13.720Z,99316.61
2022-12-11T08:43:41.104Z,99315.88
2022-12-11T08:46:08.996Z,99315.92
2022-12-11T08:48:38.194Z,99315.88
2022-12-11T08:51:09.287Z,99317.50
2022-12-11T08:53:36.640Z,99316.31
2022-12-11T08:56:08.859Z,99311.98
2022-12-11T08:58:39.325Z,99312.10
2022-12-11T09:01:09.340Z,99305.95
2022-12-11T09:03:37.863Z,99301.23
2022-12-11T09:06:07.372Z,99297.91
2022-12-11T09:08:35.035Z,99297.73
2022-12-11T09:11:12.707Z,99290.16
2022-12-11T09:13:41.264Z,99288.11
2022-12-11T09:16:11.320Z,99283.14
2022-12-11T09:18:39.636Z,99277.42
2022-12-11T09:21:10.015Z,99270.85
2022-12-11T09:23:37.699Z,99268.28
2022-12-11T09:26:11.301Z,99260.80
2022-12-11T09:28:45.800Z,99256.94
2022-12-11T09:31:18.831Z,99255.67
2022-12-11T09:33:46.787Z,99252.81
2022-12-11T09:36:14.267Z,99248.36
2022-12-11T09:38:44.160Z,99241.67
2022-12-11T09:41:59.797Z,99241.58
2022-12-11T09:44:38.849Z,99245.50
2022-12-11T09:47:46.013Z,99243.29
2022-12-11T09:50:22.607Z,99230.95
2022-12-11T09:53:18.993Z,99225.11
2022-12-11T09:55:48.835Z,99223.71
2022-12-11T09:58:25.917Z,99218.96
2022-12-11T10:01:19.050Z,99213.98
2022-12-11T10:04:01.920Z,99220.15
2022-12-11T10:06:41.999Z,99219.46
2022-12-11T10:09:56.741Z,99216.77
2022-12-11T10:12:41.352Z,99214.25
2022-12-11T10:15:50.308Z,99214.39
2022-12-11T10:18:23.168Z,99211.28
2022-12-11T10:20:52.867Z,99206.04
2022-12-11T10:23:35.699Z,99209.14
2022-12-11T10:26:17.850Z,99203.04
2022-12-11T10:28:45.482Z,99203.57
2022-12-11T10:31:51.392Z,99204.98
2022-12-11T10:34:21.283Z,99207.44
2022-12-11T10:36:48.540Z,99202.66
2022-12-11T10:39:20.344Z,99202.83
2022-12-11T10:41:50.748Z,99197.33
2022-12-11T10:44:20.741Z,99191.71
2022-12-11T10:47:01.616Z,99186.37
2022-12-11T10:49:31.326Z,99181.74
2022-12-11T10:52:01.652Z,99184.54
2022-12-11T10:54:31.704Z,99183.62
2022-12-11T10:57:00.841Z,99180.30
2022-12-11T10:59:34.759Z,99175.28
2022-12-11T11:02:03.201Z,99165.47
2022-12-11T11:04:35.756Z,99157.35
2022-12-11T11:07:24.844Z,99151.27
2022-12-11T11:10:14.292Z,99148.83
2022-12-11T11:12:44.362Z,99148.44
2022-12-11T11:15:18.040Z,99146.48
2022-12-11T11:17:54.994Z,99149.08
2022-12-11T11:20:26.970Z,99144.20
2022-12-11T11:22:56.986Z,99144.08
2022-12-11T11:25:29.127Z,99144.08
2022-12-11T11:28:02.631Z,99142.95
2022-12-11T11:30:31.308Z,99135.23
2022-12-11T11:33:02.375Z,99130.01
2022-12-11T11:35:31.674Z,99129.65
2022-12-11T11:37:58.800Z,99128.91
2022-12-11T11:40:32.068Z,99128.42
2022-12-11T11:43:05.365Z,99124.95
2022-12-11T11:45:41.653Z,99123.09
2022-12-11T11:48:34.334Z,99120.52
2022-12-11T11:51:12.895Z,99114.73
2022-12-11T11:53:41.816Z,99113.25
2022-12-11T11:56:21.713Z,99108.14
2022-12-11T11:59:07.448Z,99105.49
2022-12-11T12:01:34.881Z,99105.29
2022-12-11T12:04:04.028Z,99107.75
2022-12-11T12:06:50.788Z,99105.84
2022-12-11T12:09:31.421Z,99100.91
2022-12-11T12:12:06.606Z,99101.19
2022-12-11T12:15:18.443Z,99091.79
2022-12-11T12:17:56.076Z,99087.36
2022-12-11T12:20:41.975Z,99082.64
2022-12-11T12:23:15.172Z,99073.84
2022-12-11T12:26:05.565Z,99073.99
2022-12-11T12:28:52.993Z,99067.48
2022-12-11T12:31:51.167Z,99069.65
2022-12-11T12:34:42.490Z,99067.55
2022-12-11T12:37:31.501Z,99066.84
2022-12-11T12:40:20.694Z,99063.48
2022-12-11T12:43:11.036Z,99059.04
2022-12-11T12:46:01.495Z,99060.09
2022-12-11T12:48:29.174Z,99063.66
2022-12-11T12:50:57.067Z,99065.23
2022-12-11T12:53:28.622Z,99063.34
2022-12-11T12:55:56.718Z,99060.61
2022-12-11T12:58:35.930Z,99060.52
2022-12-11T13:01:12.544Z,99056.95
2022-12-11T13:04:54.516Z,99049.52
2022-12-11T13:07:27.346Z,99047.45
2022-12-11T13:10:07.236Z,99046.21
2022-12-11T13:12:46.040Z,99044.95
2022-12-11T13:15:27.265Z,99045.11
2022-12-11T13:17:55.081Z,99045.20
2022-12-11T13:20:24.612Z,99045.42
2022-12-11T13:23:07.075Z,99044.15
2022-12-11T13:25:50.685Z,99044.38
2022-12-11T13:28:41.152Z,99043.35
2022-12-11T13:31:37.151Z,99040.00
2022-12-11T13:34:18.595Z,99033.06
2022-12-11T13:36:54.397Z,99029.15
2022-12-11T13:39:25.337Z,99020.18
2022-12-11T13:41:56.787Z,99023.31
2022-12-11T13:44:30.804Z,99021.78
2022-12-11T13:47:00.548Z,99018.77
2022-12-11T13:49:36.942Z,99016.80
2022-12-11T13:52:05.855Z,99015.75
2022-12-11T13:54:36.553Z,99014.27
2022-12-11T13:57:06.628Z,99013.44
2022-12-11T13:59:39.032Z,99009.63
2022-12-11T14:02:21.348Z,99001.89
2022-12-11T14:04:51.884Z,99001.96
2022-12-11T14:07:25.358Z,99003.89
2022-12-11T14:09:57.013Z,99007.73
2022-12-11T14:12:24.337Z,99003.36
2022-12-11T14:14:55.098Z,99000.91
2022-12-11T14:17:26.579Z,98997.25
2022-12-11T14:19:54.881Z,98998.63
2022-12-11T14:22:25.647Z,98994.23
2022-12-11T14:24:59.144Z,98992.98
2022-12-11T14:27:27.802Z,98995.00
2022-12-11T14:29:55.184Z,98994.49
2022-12-11T14:32:33.061Z,98994.01
2022-12-11T14:35:02.696Z,98993.60
2022-12-11T14:37:31.254Z,98994.02
2022-12-11T14:40:09.928Z,98998.27
2022-12-11T14:42:43.813Z,99002.42
2022-12-11T14:45:34.997Z,99002.77
2022-12-11T14:48:10.109Z,99004.19
2022-12-11T14:50:43.997Z,99001.73
2022-12-11T14:53:17.596Z,98998.20
2022-12-11T14:55:48.148Z,98991.85
2022-12-11T14:58:23.902Z,98988.83
2022-12-11T15:01:25.317Z,98987.02
2022-12-11T15:04:07.361Z,98989.87
2022-12-11T15:06:42.712Z,98988.26
2022-12-11T15:09:35.784Z,98986.83
2022-12-11T15:12:18.650Z,98986.83
2022-12-11T15:14:51.690Z,98984.73
2022-12-11T15:17:20.145Z,98977.86
2022-12-11T15:19:51.781Z,98980.00
2022-12-11T15:22:21.237Z,98977.75
2022-12-11T15:24:52.302Z,98977.91
2022-12-11T15:27:34.096Z,98976.41
2022-12-11T15:30:01.754Z,98972.63
2022-12-11T15:32:31.318Z,98977.46
2022-12-11T15:35:00.119Z,98971.52
2022-12-11T15:37:33.983Z,98970.52
2022-12-11T15:40:04.949Z,98975.55
2022-12-11T15:42:35.708Z,98976.45
2022-12-11T15:45:06.885Z,98980.52
2022-12-11T15:47:34.241Z,98981.65
2022-12-11T15:50:14.084Z,98978.88
2022-12-11T15:52:41.463Z,98984.93
2022-12-11T15:55:09.438Z,98984.05
2022-12-11T15:57:37.224Z,98981.70
2022-12-11T16:00:06.576Z,98979.88
2022-12-11T16:02:34.216Z,98981.31
2022-12-11T16:05:01.493Z,98979.59
2022-12-11T16:07:28.592Z,98972.88
2022-12-11T16:09:55.690Z,98975.04
2022-12-11T16:12:22.867Z,98971.55
2022-12-11T16:14:50.300Z,98974.06
2022-12-11T16:17:17.578Z,98974.63
2022-12-11T16:19:45.266Z,98975.66
2022-12-11T16:22:15.591Z,98971.55
2022-12-11T16:24:43.227Z,98967.46
2022-12-11T16:27:10.504Z,98962.15
2022-12-11T16:29:40.043Z,98958.73
2022-12-11T16:32:08.519Z,98960.00
2022-12-11T16:34:37.339Z,98965.48
2022-12-11T16:37:08.810Z,98964.34
2022-12-11T16:39:37.730Z,98962.16
2022-12-11T16:42:06.389Z,98963.27
2022-12-11T16:44:33.717Z,98966.74
2022-12-11T16:47:00.868Z,98960.35
2022-12-11T16:49:28.148Z,98958.77
2022-12-11T16:51:55.323Z,98956.89
2022-12-11T16:54:22.398Z,98956.48
2022-12-11T16:56:49.574Z,98955.48
2022-12-11T16:59:16.853Z,98961.78
2022-12-11T17:01:45.036Z,98960.40
2022-12-11T17:04:12.357Z,98962.56
2022-12-11T17:06:39.506Z,98964.00
2022-12-11T17:09:07.169Z,98960.68
2022-12-11T17:11:34.562Z,98957.80
2022-12-11T17:14:01.727Z,98955.91
2022-12-11T17:16:34.050Z,98958.84
2022-12-11T17:19:03.143Z,98958.80
2022-12-11T17:21:30.274Z,98954.82
2022-12-11T17:23:57.421Z,98954.63
2022-12-11T17:26:25.468Z,98947.95
2022-12-11T17:28:52.649Z,98949.38
2022-12-11T17:31:20.113Z,98942.24
2022-12-11T17:33:47.482Z,98940.57
2022-12-11T17:36:20.187Z,98930.14
2022-12-11T17:38:48.055Z,98926.48
2022-12-11T17:41:20.449Z,98924.73
2022-12-11T17:43:52.826Z,98918.57
2022-12-11T17:46:20.850Z,98920.12
2022-12-11T17:48:48.688Z,98918.73
2022-12-11T17:51:22.071Z,98915.77
2022-12-11T17:53:49.877Z,98911.89
2022-12-11T17:56:17.575Z,98910.77
2022-12-11T17:58:44.691Z,98916.05
2022-12-11T18:01:13.333Z,98914.51
2022-12-11T18:03:41.067Z,98915.40
2022-12-11T18:06:13.515Z,98908.75
2022-12-11T18:08:41.766Z,98907.92
2022-12-11T18:11:11.981Z,98901.73
2022-12-11T18:13:39.573Z,98904.80
2022-12-11T18:16:10.934Z,98901.95
2022-12-11T18:18:38.844Z,98909.35
2022-12-11T18:21:07.171Z,98910.11
2022-12-11T18:23:34.835Z,98904.52
2022-12-11T18:26:02.135Z,98902.33
2022-12-11T18:28:31.871Z,98897.73
2022-12-11T18:31:01.335Z,98895.81
2022-12-11T18:33:30.117Z,98891.98
2022-12-11T18:35:57.291Z,98892.18
2022-12-11T18:38:24.393Z,98885.36
2022-12-11T18:40:51.599Z,98889.70
2022-12-11T18:43:18.743Z,98889.11
2022-12-11T18:45:46.124Z,98891.14
2022-12-11T18:48:14.554Z,98892.05
2022-12-11T18:50:48.849Z,98892.30
2022-12-11T18:53:17.639Z,98895.90
2022-12-11T18:55:47.936Z,98893.70
2022-12-11T18:58:17.677Z,98896.18
2022-12-11T19:00:46.214Z,98892.23
2022-12-11T19:03:14.252Z,98891.83
2022-12-11T19:05:43.916Z,98892.93
2022-12-11T19:08:14.045Z,98891.68
2022-12-11T19:10:43.588Z,98893.80
2022-12-11T19:13:11.617Z,98889.48
2022-12-11T19:15:42.964Z,98890.22
2022-12-11T19:18:11.357Z,98886.17
2022-12-11T19:20:49.273Z,98885.36
2022-12-11T19:23:17.184Z,98885.94
2022-12-11T19:25:46.590Z,98883.88
2022-12-11T19:28:14.787Z,98880.86
2022-12-11T19:30:47.089Z,98883.61
2022-12-11T19:33:14.592Z,98882.90
2022-12-11T19:35:42.127Z,98885.77
2022-12-11T19:38:09.329Z,98885.96
2022-12-11T19:40:41.062Z,98886.08
2022-12-11T19:43:08.301Z,98888.36
2022-12-11T19:45:35.570Z,98890.70
2022-12-11T19:48:03.102Z,98886.76
2022-12-11T19:50:30.350Z,98882.73
2022-12-11T19:52:57.454Z,98882.33
2022-12-11T19:55:24.556Z,98879.64
2022-12-11T19:57:51.643Z,98875.16
2022-12-11T20:00:19.681Z,98872.51
2022-12-11T20:02:46.724Z,98874.08
2022-12-11T20:05:14.195Z,98867.66
2022-12-11T20:07:41.539Z,98869.52
2022-12-11T20:10:09.069Z,98870.49
2022-12-11T20:12:36.369Z,98874.27
2022-12-11T20:15:06.192Z,98872.77
2022-12-11T20:17:33.565Z,98871.40
2022-12-11T20:20:00.867Z,98873.80
2022-12-11T20:22:27.978Z,98872.50
2022-12-11T20:24:55.195Z,98869.02
2022-12-11T20:27:22.582Z,98874.73
2022-12-11T20:29:49.734Z,98873.65
2022-12-11T20:32:16.900Z,98875.64
2022-12-11T20:34:44.042Z,98874.20
2022-12-11T20:37:11.116Z,98872.43
2022-12-11T20:39:38.220Z,98872.05
2022-12-11T20:42:05.386Z,98870.60
2022-12-11T20:44:32.633Z,98872.17
2022-12-11T20:46:59.884Z,98870.69
2022-12-11T20:49:27.012Z,98866.48
2022-12-11T20:51:55.802Z,98860.80
2022-12-11T20:54:22.905Z,98858.69
2022-12-11T20:56:50.282Z,98855.39
2022-12-11T20:59:17.535Z,98847.05
2022-12-11T21:01:44.725Z,98840.54
2022-12-11T21:04:11.963Z,98839.23
2022-12-11T21:06:40.707Z,98834.98
2022-12-11T21:09:12.409Z,98831.35
2022-12-11T21:11:39.737Z,98828.17
2022-12-11T21:14:06.990Z,98823.03
2022-12-11T21:16:36.898Z,98822.20
2022-12-11T21:19:05.434Z,98821.66
2022-12-11T21:21:34.045Z,98821.48
2022-12-11T21:24:01.174Z,98825.33
2022-12-11T21:26:28.332Z,98827.75
2022-12-11T21:28:55.473Z,98824.10
2022-12-11T21:31:22.668Z,98822.79
2022-12-11T21:33:49.874Z,98815.79
2022-12-11T21:36:17.202Z,98817.04
2022-12-11T21:38:45.210Z,98815.86
2022-12-11T21:41:15.746Z,98813.14
2022-12-11T21:44:14.664Z,98818.78
2022-12-11T21:46:31.376Z,98821.91
2022-12-11T21:49:00.025Z,98819.36
2022-12-11T21:51:34.320Z,98815.02
2022-12-11T21:54:04.071Z,98813.37
2022-12-11T21:56:32.082Z,98811.31
2022-12-11T21:58:59.173Z,98808.19
2022-12-11T22:01:30.738Z,98809.90
2022-12-11T22:03:58.597Z,98808.66
2022-12-11T22:06:25.782Z,98808.25
2022-12-11T22:08:53.258Z,98813.13
2022-12-11T22:11:22.879Z,98812.45
2022-12-11T22:13:50.019Z,98807.89
2022-12-11T22:16:17.175Z,98808.13
2022-12-11T22:18:44.603Z,98806.86
2022-12-11T22:21:11.818Z,98805.53
2022-12-11T22:23:39.604Z,98801.89
2022-12-11T22:26:07.356Z,98801.70
2022-12-11T22:28:34.812Z,98798.42
2022-12-11T22:31:01.969Z,98796.65
2022-12-11T22:33:29.239Z,98792.56
2022-12-11T22:36:57.790Z,98793.09
2022-12-11T22:39:25.246Z,98790.77
2022-12-11T22:41:52.693Z,98788.17
2022-12-11T22:44:21.967Z,98789.13
2022-12-11T22:46:50.566Z,98787.46
2022-12-11T22:49:19.513Z,98786.91
2022-12-11T22:51:46.705Z,98783.23
2022-12-11T22:54:13.783Z,98776.83
2022-12-11T22:56:41.021Z,98778.16
2022-12-11T22:59:08.075Z,98778.35
2022-12-11T23:01:35.403Z,98778.58
2022-12-11T23:04:02.588Z,98778.69
2022-12-11T23:06:29.682Z,98775.67
2022-12-11T23:09:01.313Z,98776.13
2022-12-11T23:11:36.329Z,98774.30
2022-12-11T23:14:06.889Z,98770.41
2022-12-11T23:16:34.166Z,98770.92
2022-12-11T23:19:01.400Z,98769.17
2022-12-11T23:21:31.720Z,98769.65
2022-12-11T23:23:59.478Z,98770.05
2022-12-11T23:26:27.816Z,98772.11
2022-12-11T23:28:56.464Z,98767.48
2022-12-11T23:31:24.827Z,98767.73
2022-12-11T23:33:52.993Z,98774.03
2022-12-11T23:36:20.412Z,98771.41
2022-12-11T23:38:54.067Z,98767.64
2022-12-11T23:41:22.481Z,98771.48
2022-12-11T23:43:49.609Z,98769.56
2022-12-11T23:46:20.036Z,98773.61
2022-12-11T23:48:47.185Z,98775.56
2022-12-11T23:51:16.949Z,98771.41
2022-12-11T23:53:44.115Z,98773.77
2022-12-11T23:56:15.600Z,98773.30
2022-12-11T23:58:43.011Z,98776.58
